Huvudsida
METAR-TAF:

METAR-TAF

Flygplatser :

La Romana International Airport

La Romana, Dominikanska republiken

latitud: 18-25N, longitud: 068-57W, höjd: 8 m

Aktuellt väderrapport

Denna rapport gjordes för 20 minuter sedan, klockan 21:00 UTC
Vind 8 kt från sydost
Temperatur 27°C
Fuktighet 79%
Tryck 1017 hPa
Sikt: 8000 m
Brutna moln på en höjd av 1800 ft
Spridda moln på en höjd av 7000 ft
lätt regn

METAR: MDLR 112100Z 13008KT 8000 -RA BKN018 SCT070 27/23 Q1017

Tid: 17:20 (21:20 UTC)

Väderprognos

Denna rapport gjordes för 3 timmar och 20 minuter sedan, klockan 18:00 UTC
Prognos gäller från 11 kl. 18 UTC till 12 kl. 18 UTC
Vind 12 kt från syd/sydost
Sikt 10 km eller mer
Spridda moln på en höjd av 2200 ft
Sannolikhet 30%
mellan 80 och 00 UTC
Spridda moln på en höjd av 1600 ft
Brutna moln på en höjd av 7000 ft
(lätt) skurar
Blir
från 12 kl. 02 UTC till 12 kl. 04 UTC
Vind kt från nord

TAF: MDLR 111800Z 1118/1218 16012KT 9999 SCT022 PROB30 8000 -SH SCT016 BKN070 BECMG 1202/1204 00000KT

Aktuella väderrapporter och prognoser från 4000 flygplatser (METAR- och TAF-rapporter).

De tillgängliga stationerna syns som gula och röda prickar på kartan.

För musen över prickarna för att se namnen på stationerna.

Klicka sedan för att få väderrapporter och prognoser.

För att ändra kartan: Klicka på de gröna knapparna med ett svart kors på för att zooma in; den gröna knappen med ett streck på för att zooma ut; eller på de gröna pilarna för angränsande kartor.


METAR-TAF: